Time;durP1;ratioP1;P1;durP2;ratioP2;P2;SDS_P1;SDS_P2;PMS_P1;PMS_P2;Temp;Humidity;BMP_temperature;BMP_pressure;BME280_temperature;BME280_humidity;BME280_pressure;Samples;Min_cycle;Max_cycle;Signal;HPM_P1;HPM_P2
2021/11/26 00:01:45;;;;;;;56.90;32.70;;;;;;;2.76;67.39;99021.70;104295;1314;138666;-65
2021/11/26 00:04:19;;;;;;;55.60;33.00;;;;;;;2.75;67.34;99014.02;104117;1314;108932;-64
2021/11/26 00:06:51;;;;;;;58.10;32.80;;;;;;;2.75;67.24;99016.93;104416;1314;138011;-65
2021/11/26 00:09:23;;;;;;;51.90;32.20;;;;;;;2.74;67.41;99016.25;104025;1315;97919;-65
2021/11/26 00:11:56;;;;;;;47.60;30.20;;;;;;;2.77;67.37;99012.94;104479;1315;112491;-64
2021/11/26 00:14:30;;;;;;;52.90;31.00;;;;;;;2.80;67.40;99007.20;104428;1317;138955;-64
2021/11/26 00:17:04;;;;;;;50.80;31.00;;;;;;;2.83;67.48;99001.65;103271;1315;108902;-65
2021/11/26 00:19:35;;;;;;;53.40;32.90;;;;;;;2.83;67.20;98998.89;103250;1314;137884;-64
2021/11/26 00:22:07;;;;;;;53.60;32.00;;;;;;;2.83;67.25;99009.05;104232;1316;96055;-64
2021/11/26 00:24:39;;;;;;;54.20;31.60;;;;;;;2.82;67.19;99014.20;103809;1320;137748;-63
2021/11/26 00:27:11;;;;;;;51.00;30.80;;;;;;;2.83;67.33;99014.35;103361;1314;108719;-66
2021/11/26 00:29:44;;;;;;;49.00;30.60;;;;;;;2.83;67.26;99012.98;103113;1315;108776;-64
2021/11/26 00:32:16;;;;;;;49.30;30.40;;;;;;;2.81;67.17;99005.30;103530;1314;137786;-64
2021/11/26 00:34:48;;;;;;;53.30;32.50;;;;;;;2.79;67.27;99009.62;104409;1314;96344;-64
2021/11/26 00:37:20;;;;;;;53.50;32.70;;;;;;;2.78;67.17;99015.33;104437;1315;138583;-66
2021/11/26 00:39:52;;;;;;;52.70;31.60;;;;;;;2.77;67.17;99015.52;104526;1314;108953;-63
2021/11/26 00:42:24;;;;;;;53.20;31.40;;;;;;;2.75;67.17;99021.05;103411;1314;137887;-63
2021/11/26 00:44:57;;;;;;;54.00;31.40;;;;;;;2.74;67.43;99026.39;103433;1314;97865;-63
2021/11/26 00:47:29;;;;;;;43.20;27.10;;;;;;;2.75;67.10;99023.46;103316;1314;97994;-66
2021/11/26 00:50:01;;;;;;;48.90;29.70;;;;;;;2.78;67.39;99018.23;103846;1314;137831;-64
2021/11/26 00:52:33;;;;;;;50.10;29.40;;;;;;;2.81;67.18;99013.71;103985;1314;109059;-63
2021/11/26 00:55:06;;;;;;;50.50;30.70;;;;;;;2.82;67.29;99006.99;103062;1314;137768;-63
2021/11/26 00:57:38;;;;;;;49.00;29.60;;;;;;;2.85;67.38;99004.01;104576;1317;96053;-64
2021/11/26 01:00:14;;;;;;;48.60;31.00;;;;;;;2.87;67.25;99000.89;104524;1315;97018;-64
2021/11/26 01:02:47;;;;;;;53.40;31.20;;;;;;;2.87;67.15;98996.42;103367;1315;137472;-63
2021/11/26 01:05:19;;;;;;;52.40;32.00;;;;;;;2.89;67.14;99000.17;103208;1314;108974;-63
2021/11/26 01:07:51;;;;;;;52.60;33.00;;;;;;;2.89;67.11;98998.27;103050;1314;137775;-63
2021/11/26 01:10:25;;;;;;;58.50;34.30;;;;;;;2.90;67.25;98996.70;103217;1314;97876;-63
2021/11/26 01:12:57;;;;;;;54.00;32.80;;;;;;;2.87;67.05;98991.27;103276;1320;137755;-64
2021/11/26 01:15:33;;;;;;;56.70;33.80;;;;;;;2.84;67.10;98984.80;104544;1314;112681;-64
2021/11/26 01:18:05;;;;;;;54.30;32.40;;;;;;;2.82;67.15;98984.85;104499;1315;109061;-64
2021/11/26 01:20:38;;;;;;;55.80;34.00;;;;;;;2.79;67.11;98984.41;103497;1314;139054;-64
2021/11/26 01:23:10;;;;;;;54.10;32.50;;;;;;;2.80;67.40;98984.36;103377;1317;98011;-64
2021/11/26 01:25:42;;;;;;;51.00;32.10;;;;;;;2.85;67.51;98980.48;103381;1315;137854;-64
2021/11/26 01:28:15;;;;;;;56.00;32.30;;;;;;;2.89;67.49;98978.36;104534;1317;112506;-64
2021/11/26 01:30:48;;;;;;;52.40;32.10;;;;;;;2.91;67.36;98979.16;103779;1315;138203;-63
2021/11/26 01:33:21;;;;;;;56.20;32.70;;;;;;;2.93;67.39;98982.22;104201;1318;108991;-64
2021/11/26 01:35:54;;;;;;;54.40;32.80;;;;;;;2.93;67.19;98981.52;104482;1314;96536;-64
2021/11/26 01:38:26;;;;;;;57.10;33.50;;;;;;;2.95;67.16;98980.11;104426;1315;137450;-64
2021/11/26 01:40:59;;;;;;;59.10;33.70;;;;;;;2.96;67.25;98988.84;104540;1314;112610;-64
2021/11/26 01:43:31;;;;;;;54.90;32.60;;;;;;;2.96;67.21;98986.77;104161;1318;141750;-64
2021/11/26 01:46:08;;;;;;;58.50;34.10;;;;;;;2.95;67.15;98987.98;104562;1313;107852;-64
2021/11/26 01:48:39;;;;;;;;;;;;;;;2.93;67.04;98985.48;103634;1314;141117;-65
2021/11/26 01:51:12;;;;;;;55.30;32.80;;;;;;;2.91;67.26;98980.20;103926;1316;97640;-64
2021/11/26 01:53:44;;;;;;;53.60;33.00;;;;;;;2.90;67.23;98980.77;104553;1314;112827;-64
2021/11/26 01:56:16;;;;;;;51.90;30.70;;;;;;;2.85;67.21;98971.89;103908;1315;139161;-65
2021/11/26 01:58:48;;;;;;;53.10;32.10;;;;;;;2.85;67.31;98976.01;103154;1314;108019;-64
2021/11/26 02:01:22;;;;;;;50.00;30.10;;;;;;;2.87;67.28;98971.35;103082;1316;138600;-64
2021/11/26 02:03:55;;;;;;;47.20;30.20;;;;;;;2.89;67.35;98964.12;103093;1314;97818;-64
2021/11/26 02:06:27;;;;;;;49.60;31.20;;;;;;;2.90;67.51;98964.42;103232;1314;112832;-64
2021/11/26 02:08:59;;;;;;;49.50;31.30;;;;;;;2.93;67.49;98965.56;103100;1314;137705;-66
2021/11/26 02:11:31;;;;;;;48.40;30.90;;;;;;;2.96;67.34;98956.38;103146;1314;108807;-64
2021/11/26 02:14:03;;;;;;;53.20;32.10;;;;;;;2.96;67.51;98945.58;103076;1317;137892;-64
2021/11/26 02:16:48;;;;;;;50.50;31.90;;;;;;;2.98;67.64;98938.50;103199;1314;97891;-64
2021/11/26 02:19:23;;;;;;;51.00;31.40;;;;;;;2.93;67.35;98945.30;104446;1318;138319;-64
2021/11/26 02:21:55;;;;;;;58.10;33.70;;;;;;;2.90;67.62;98940.41;104162;1317;109226;-64
2021/11/26 02:24:27;;;;;;;54.80;33.80;;;;;;;2.87;67.51;98936.86;103481;1314;108947;-64
2021/11/26 02:27:00;;;;;;;55.00;32.50;;;;;;;2.82;67.59;98931.11;103092;1314;139026;-64
2021/11/26 02:29:32;;;;;;;59.10;34.30;;;;;;;2.78;67.60;98928.63;103234;1318;97952;-64
2021/11/26 02:32:04;;;;;;;53.00;32.00;;;;;;;2.75;67.94;98930.09;103142;1315;137622;-64
2021/11/26 02:34:37;;;;;;;54.60;32.00;;;;;;;2.72;67.91;98926.54;104538;1317;109111;-64
2021/11/26 02:37:09;;;;;;;53.30;31.20;;;;;;;2.70;67.96;98921.09;104381;1315;139060;-64
2021/11/26 02:39:41;;;;;;;49.00;30.30;;;;;;;2.70;68.01;98916.64;104528;1320;96092;-64
2021/11/26 02:42:22;;;;;;;50.90;30.80;;;;;;;2.72;68.25;98906.45;103481;1319;97993;-64
2021/11/26 02:44:54;;;;;;;47.60;30.60;;;;;;;2.77;68.08;98912.18;103007;1316;137873;-64
2021/11/26 02:47:27;;;;;;;52.80;32.00;;;;;;;2.80;67.85;98911.41;103211;1315;109016;-64
2021/11/26 02:50:03;;;;;;;53.90;31.90;;;;;;;2.82;68.07;98911.20;103106;1314;137805;-64
2021/11/26 02:52:35;;;;;;;48.20;30.90;;;;;;;2.85;67.83;98901.70;103158;1314;97901;-63
2021/11/26 02:55:11;;;;;;;51.80;31.30;;;;;;;2.82;67.92;98897.81;103036;1315;137806;-64
2021/11/26 02:57:43;;;;;;;49.10;30.00;;;;;;;2.79;67.92;98890.16;103477;1314;112877;-63
2021/11/26 03:00:20;;;;;;;52.50;32.00;;;;;;;2.78;68.11;98895.16;103238;1316;108969;-63
2021/11/26 03:02:51;;;;;;;53.20;32.50;;;;;;;2.75;67.79;98900.05;104414;1314;137632;-64
2021/11/26 03:05:24;;;;;;;50.80;31.30;;;;;;;2.70;67.80;98902.73;103828;1314;97887;-63
2021/11/26 03:07:57;;;;;;;47.30;30.30;;;;;;;2.67;68.13;98898.48;103088;1314;137751;-64
2021/11/26 03:10:30;;;;;;;48.60;30.20;;;;;;;2.62;67.99;98898.60;103170;1317;112419;-64
2021/11/26 03:13:05;;;;;;;48.30;29.70;;;;;;;2.60;68.06;98899.17;103112;1315;139493;-63
2021/11/26 03:15:42;;;;;;;43.30;27.60;;;;;;;2.62;68.06;98898.95;103228;1314;108068;-64
2021/11/26 03:18:17;;;;;;;46.00;28.40;;;;;;;2.64;67.96;98897.36;103154;1316;97843;-63
2021/11/26 03:20:51;;;;;;;44.50;29.00;;;;;;;2.66;68.29;98894.05;104234;1315;137981;-63
2021/11/26 03:23:24;;;;;;;48.70;30.50;;;;;;;2.69;68.27;98896.56;104080;1314;111623;-64
2021/11/26 03:25:56;;;;;;;47.80;30.00;;;;;;;2.70;68.14;98900.15;103043;1315;138154;-63
2021/11/26 03:28:28;;;;;;;49.00;30.90;;;;;;;2.70;68.21;98903.06;103176;1317;108768;-64
2021/11/26 03:31:00;;;;;;;50.00;30.40;;;;;;;2.67;67.98;98897.79;103145;1316;137926;-63
2021/11/26 03:33:32;;;;;;;49.10;30.70;;;;;;;2.63;68.02;98887.60;103166;1316;97928;-64
2021/11/26 03:36:04;;;;;;;53.00;32.40;;;;;;;2.58;68.10;98890.47;103181;1317;112809;-63
2021/11/26 03:38:36;;;;;;;52.20;31.50;;;;;;;2.54;68.16;98885.23;103043;1316;137752;-63
2021/11/26 03:41:08;;;;;;;52.80;32.60;;;;;;;2.52;68.25;98886.48;103248;1314;108071;-64
2021/11/26 03:43:40;;;;;;;49.60;30.90;;;;;;;2.48;68.33;98881.23;103111;1314;137835;-64
2021/11/26 03:46:12;;;;;;;52.60;31.20;;;;;;;2.47;68.40;98878.17;103038;1316;97872;-64
2021/11/26 03:48:44;;;;;;;46.90;29.30;;;;;;;2.47;68.42;98880.73;103100;1313;138957;-63
2021/11/26 03:51:17;;;;;;;52.10;31.90;;;;;;;2.49;68.43;98876.73;103150;1316;108730;-64
2021/11/26 03:53:49;;;;;;;53.90;31.30;;;;;;;2.53;68.58;98877.56;103256;1314;107163;-64
2021/11/26 03:56:21;;;;;;;52.30;31.00;;;;;;;2.56;68.74;98889.48;102939;1316;138876;-64
2021/11/26 03:58:53;;;;;;;51.60;32.00;;;;;;;2.56;68.58;98891.36;103198;1315;97860;-64
2021/11/26 04:01:25;;;;;;;54.00;32.80;;;;;;;2.54;68.57;98888.30;103068;1313;138224;-63
2021/11/26 04:03:57;;;;;;;56.20;32.80;;;;;;;2.56;68.74;98888.46;103176;1317;108328;-64
2021/11/26 04:06:29;;;;;;;53.50;33.90;;;;;;;2.59;68.81;98889.75;103218;1317;109204;-64
2021/11/26 04:09:01;;;;;;;55.90;34.00;;;;;;;2.60;68.78;98887.84;103106;1313;137669;-64
2021/11/26 04:11:35;;;;;;;59.80;35.10;;;;;;;2.58;68.49;98889.25;103197;1314;97955;-63
2021/11/26 04:14:07;;;;;;;58.30;34.90;;;;;;;2.55;68.77;98891.41;103091;1320;137661;-63
2021/11/26 04:16:40;;;;;;;60.30;34.20;;;;;;;2.50;68.89;98885.30;103266;1313;108762;-64
2021/11/26 04:19:11;;;;;;;55.90;33.40;;;;;;;2.49;68.93;98883.27;103029;1315;138622;-64
2021/11/26 04:21:44;;;;;;;52.60;31.90;;;;;;;2.50;69.06;98886.34;103180;1316;97825;-64
2021/11/26 04:24:16;;;;;;;51.00;31.50;;;;;;;2.49;69.12;98894.77;103200;1317;97823;-64
2021/11/26 04:26:48;;;;;;;49.50;30.60;;;;;;;2.52;69.18;98890.60;103103;1313;137898;-64
2021/11/26 04:29:20;;;;;;;55.00;33.10;;;;;;;2.51;69.13;98887.84;103136;1316;108936;-64
2021/11/26 04:31:52;;;;;;;53.20;33.40;;;;;;;2.51;69.20;98893.18;103204;1316;137768;-64
2021/11/26 04:34:24;;;;;;;54.50;33.40;;;;;;;2.48;69.05;98884.48;103078;1317;97862;-64
2021/11/26 04:36:56;;;;;;;55.80;31.90;;;;;;;2.47;69.23;98881.24;103112;1314;138584;-64
2021/11/26 04:39:28;;;;;;;56.90;33.20;;;;;;;2.47;69.27;98877.13;103216;1313;110999;-63
2021/11/26 04:42:00;;;;;;;53.80;32.00;;;;;;;2.48;69.23;98879.18;103182;1316;109004;-64
2021/11/26 04:44:32;;;;;;;55.80;34.70;;;;;;;2.46;69.38;98869.77;103104;1319;139569;-64
2021/11/26 04:47:04;;;;;;;57.50;33.40;;;;;;;2.46;69.34;98861.03;103151;1313;97830;-64
2021/11/26 04:49:37;;;;;;;54.70;32.60;;;;;;;2.43;69.47;98851.48;103085;1317;138144;-64
2021/11/26 04:52:09;;;;;;;54.90;32.30;;;;;;;2.43;69.38;98855.79;103252;1313;112711;-64
2021/11/26 04:54:41;;;;;;;55.20;31.50;;;;;;;2.44;69.44;98850.09;103112;1316;138619;-65
2021/11/26 04:57:13;;;;;;;54.20;30.60;;;;;;;2.44;69.28;98841.36;103079;1317;109362;-66
2021/11/26 04:59:46;;;;;;;48.20;30.10;;;;;;;2.50;69.55;98844.65;103031;1317;97931;-64
2021/11/26 05:02:18;;;;;;;50.30;30.60;;;;;;;2.53;69.39;98842.20;103149;1313;137683;-64
2021/11/26 05:04:50;;;;;;;51.70;31.40;;;;;;;2.57;69.30;98838.48;103126;1316;112566;-63
2021/11/26 05:07:23;;;;;;;52.50;31.70;;;;;;;2.61;69.37;98845.09;103094;1313;138396;-64
2021/11/26 05:09:59;;;;;;;50.00;32.00;;;;;;;2.63;69.49;98851.23;103140;1316;106685;-63
2021/11/26 05:12:36;;;;;;;53.40;33.10;;;;;;;2.61;69.36;98855.39;103129;1317;97961;-63
2021/11/26 05:15:10;;;;;;;53.00;32.50;;;;;;;2.61;69.27;98852.81;103803;1320;139341;-63
2021/11/26 05:17:42;;;;;;;53.50;33.30;;;;;;;2.63;69.40;98857.58;104549;1317;111505;-64
2021/11/26 05:20:14;;;;;;;61.60;33.30;;;;;;;2.65;69.34;98856.66;104519;1313;138291;-64
2021/11/26 05:22:46;;;;;;;55.70;34.00;;;;;;;2.67;69.18;98853.52;103818;1315;107520;-63
2021/11/26 05:25:19;;;;;;;50.30;31.10;;;;;;;2.68;69.24;98858.31;102960;1317;139629;-66
2021/11/26 05:27:51;;;;;;;53.70;31.30;;;;;;;2.71;69.34;98859.63;103154;1317;97913;-65
2021/11/26 05:30:24;;;;;;;49.00;29.10;;;;;;;2.75;69.11;98854.55;103082;1320;112746;-63
2021/11/26 05:32:56;;;;;;;49.60;30.30;;;;;;;2.77;69.14;98849.36;103087;1316;139053;-64
2021/11/26 05:35:28;;;;;;;49.50;28.90;;;;;;;2.84;69.22;98847.65;103140;1316;109055;-64
2021/11/26 05:38:01;;;;;;;52.20;31.30;;;;;;;2.87;68.88;98849.48;103035;1317;139283;-65
2021/11/26 05:40:33;;;;;;;48.30;30.00;;;;;;;2.87;69.03;98853.08;103180;1317;97853;-66
2021/11/26 05:43:05;;;;;;;47.30;30.30;;;;;;;2.89;68.68;98848.41;103111;1314;138876;-65
2021/11/26 05:45:37;;;;;;;53.20;31.20;;;;;;;2.90;69.09;98847.54;103107;1317;107909;-65
2021/11/26 05:48:09;;;;;;;49.40;31.20;;;;;;;2.89;69.05;98843.60;103189;1316;106770;-65
2021/11/26 05:50:41;;;;;;;54.80;31.10;;;;;;;2.88;69.06;98840.52;103066;1316;137853;-65
2021/11/26 05:53:14;;;;;;;53.10;31.10;;;;;;;2.86;68.83;98853.10;103200;1317;97858;-64
2021/11/26 05:55:45;;;;;;;52.00;32.10;;;;;;;2.82;68.81;98855.58;103062;1320;137599;-65
2021/11/26 05:58:17;;;;;;;53.80;32.70;;;;;;;2.80;69.21;98860.29;103149;1314;108943;-65
2021/11/26 06:00:49;;;;;;;52.30;32.20;;;;;;;2.79;68.93;98870.42;103014;1314;138289;-64
2021/11/26 06:03:24;;;;;;;55.10;32.00;;;;;;;2.79;69.20;98867.52;103228;1314;97957;-65
2021/11/26 06:05:57;;;;;;;51.30;31.40;;;;;;;2.82;69.22;98864.86;103160;1319;97925;-64
2021/11/26 06:08:29;;;;;;;51.60;29.50;;;;;;;2.83;68.89;98863.28;103023;1314;138276;-64
2021/11/26 06:11:01;;;;;;;49.60;28.30;;;;;;;2.84;69.04;98861.37;103117;1316;110087;-64
2021/11/26 06:13:33;;;;;;;49.60;30.20;;;;;;;2.89;69.35;98855.77;103063;1314;138556;-64
2021/11/26 06:16:06;;;;;;;48.90;30.40;;;;;;;2.96;69.25;98849.92;103121;1318;97921;-64
2021/11/26 06:18:38;;;;;;;50.60;30.40;;;;;;;3.00;69.25;98847.44;103299;1316;97929;-64
2021/11/26 06:21:10;;;;;;;49.30;30.90;;;;;;;3.03;69.27;98846.66;103077;1316;137482;-64
2021/11/26 06:23:42;;;;;;;47.90;30.30;;;;;;;3.08;69.29;98847.95;103093;1317;107534;-64
2021/11/26 06:26:14;;;;;;;49.90;29.80;;;;;;;3.07;69.03;98854.69;103004;1316;137846;-64
2021/11/26 06:28:46;;;;;;;53.10;32.00;;;;;;;3.01;68.96;98860.44;103209;1320;97840;-64
2021/11/26 06:31:18;;;;;;;62.50;32.30;;;;;;;2.95;69.23;98858.73;103062;1316;138124;-64
2021/11/26 06:33:50;;;;;;;55.30;32.50;;;;;;;2.94;69.28;98858.91;103162;1315;112618;-64
2021/11/26 06:36:22;;;;;;;53.40;31.50;;;;;;;2.93;69.16;98869.59;103214;1314;107772;-64
2021/11/26 06:38:54;;;;;;;54.60;31.60;;;;;;;2.91;69.46;98868.27;103094;1315;137970;-64
2021/11/26 06:41:26;;;;;;;54.90;31.10;;;;;;;2.92;69.49;98871.00;103089;1315;97853;-64
2021/11/26 06:43:58;;;;;;;56.40;30.60;;;;;;;2.90;69.35;98865.88;103089;1317;138411;-64
2021/11/26 06:46:30;;;;;;;54.20;30.30;;;;;;;2.88;69.53;98860.95;103135;1317;110775;-65
2021/11/26 06:49:02;;;;;;;50.80;30.00;;;;;;;2.90;69.50;98862.12;102984;1314;138292;-65
2021/11/26 06:51:34;;;;;;;52.10;30.00;;;;;;;2.90;69.34;98860.73;103113;1317;108933;-64
2021/11/26 06:54:06;;;;;;;52.20;31.70;;;;;;;2.90;69.64;98852.67;103070;1316;97865;-64
2021/11/26 06:56:38;;;;;;;54.60;33.10;;;;;;;2.92;69.65;98855.02;103002;1314;137706;-64
2021/11/26 06:59:10;;;;;;;51.10;32.10;;;;;;;2.93;69.50;98851.23;103128;1317;112236;-65
2021/11/26 07:01:42;;;;;;;57.10;32.00;;;;;;;2.89;69.57;98848.23;102999;1314;137953;-65
2021/11/26 07:04:14;;;;;;;53.20;33.20;;;;;;;2.90;69.79;98855.42;103029;1317;108920;-64
2021/11/26 07:06:46;;;;;;;56.60;32.30;;;;;;;2.93;69.77;98858.93;103160;1317;97909;-64
2021/11/26 07:09:18;;;;;;;54.20;33.20;;;;;;;2.97;70.05;98862.80;103075;1314;137555;-63
2021/11/26 07:11:51;;;;;;;57.10;32.70;;;;;;;2.99;69.71;98868.93;103094;1316;111153;-63
2021/11/26 07:14:46;;;;;;;58.80;32.60;;;;;;;2.94;69.80;98863.89;103012;1317;138220;-64
2021/11/26 07:17:18;;;;;;;53.80;32.00;;;;;;;2.93;69.80;98859.63;103965;1317;107940;-64
2021/11/26 07:19:50;;;;;;;56.20;30.50;;;;;;;2.91;69.85;98860.02;103985;1317;138505;-66
2021/11/26 07:22:22;;;;;;;52.80;30.80;;;;;;;2.95;69.86;98861.30;103967;1314;96098;-64
2021/11/26 07:24:55;;;;;;;49.30;29.80;;;;;;;3.02;69.81;98871.08;103329;1314;114080;-63
2021/11/26 07:27:27;;;;;;;56.50;32.30;;;;;;;3.06;69.86;98875.30;103018;1317;137932;-64
2021/11/26 07:29:59;;;;;;;55.30;31.20;;;;;;;3.10;69.76;98867.14;103115;1316;109236;-63
2021/11/26 07:32:31;;;;;;;56.30;32.10;;;;;;;3.12;69.78;98867.23;103086;1313;137706;-63
2021/11/26 07:35:03;;;;;;;55.40;32.30;;;;;;;3.11;69.55;98864.19;103179;1314;97972;-63
2021/11/26 07:37:36;;;;;;;54.30;31.80;;;;;;;3.07;69.59;98860.86;103047;1314;138912;-63
2021/11/26 07:40:12;;;;;;;52.70;32.50;;;;;;;3.01;69.48;98858.05;103133;1315;109071;-63
2021/11/26 07:42:45;;;;;;;57.70;33.70;;;;;;;2.97;69.78;98848.89;104080;1315;108986;-64
2021/11/26 07:45:17;;;;;;;56.50;33.60;;;;;;;2.93;69.82;98845.05;102971;1314;136866;-64
2021/11/26 07:47:50;;;;;;;61.30;33.40;;;;;;;2.90;69.82;98839.27;103065;1315;98004;-64
2021/11/26 07:50:22;;;;;;;52.80;32.70;;;;;;;2.91;70.17;98834.27;103117;1314;138443;-64
2021/11/26 07:52:54;;;;;;;51.10;30.40;;;;;;;2.91;70.14;98834.98;102977;1316;108172;-63
2021/11/26 07:55:26;;;;;;;54.40;30.90;;;;;;;2.95;70.23;98839.66;103548;1315;138593;-64
2021/11/26 07:57:58;;;;;;;55.70;32.80;;;;;;;2.97;70.05;98838.23;104251;1316;96081;-66
2021/11/26 08:00:30;;;;;;;53.80;33.00;;;;;;;3.03;70.30;98832.41;104517;1316;96309;-65
2021/11/26 08:03:02;;;;;;;58.60;32.80;;;;;;;3.14;70.34;98835.23;103500;1320;137916;-62
2021/11/26 08:05:35;;;;;;;51.80;31.70;;;;;;;3.24;70.24;98835.20;104510;1316;109834;-64
2021/11/26 08:08:09;;;;;;;52.80;32.30;;;;;;;3.26;69.96;98837.54;104378;1314;137685;-64
2021/11/26 08:10:41;;;;;;;57.40;34.20;;;;;;;3.26;70.08;98837.56;104028;1312;180135;-66
2021/11/26 08:13:13;;;;;;;56.30;34.10;;;;;;;3.24;69.84;98843.09;102951;1317;139044;-64
2021/11/26 08:15:45;;;;;;;56.10;33.60;;;;;;;3.23;70.23;98845.15;104482;1315;113590;-64
2021/11/26 08:18:17;;;;;;;61.80;33.40;;;;;;;3.28;70.38;98851.41;103409;1317;109020;-63
2021/11/26 08:20:49;;;;;;;53.90;32.30;;;;;;;3.32;70.28;98847.49;103597;1315;138468;-65
2021/11/26 08:23:21;;;;;;;59.70;32.30;;;;;;;3.38;70.04;98846.86;102980;1316;98006;-64
2021/11/26 08:25:53;;;;;;;54.80;32.00;;;;;;;3.40;70.05;98852.46;104106;1311;139208;-64
2021/11/26 08:28:25;;;;;;;52.00;30.10;;;;;;;3.47;70.03;98854.70;104502;1315;112660;-64
2021/11/26 08:30:58;;;;;;;60.80;34.00;;;;;;;3.48;70.08;98848.66;104495;1317;107384;-64
2021/11/26 08:33:30;;;;;;;57.20;32.80;;;;;;;3.51;69.87;98844.96;104375;1314;139237;-64
2021/11/26 08:36:02;;;;;;;55.50;33.30;;;;;;;3.50;69.83;98846.55;103617;1317;97835;-64
2021/11/26 08:38:34;;;;;;;55.30;32.30;;;;;;;3.46;69.80;98839.09;102876;1314;137643;-65
2021/11/26 08:41:05;;;;;;;54.90;33.40;;;;;;;3.44;69.80;98842.05;102976;1315;111550;-65
2021/11/26 08:43:38;;;;;;;61.90;35.00;;;;;;;3.46;70.03;98845.77;103010;1313;138317;-65
2021/11/26 08:46:10;;;;;;;61.40;35.00;;;;;;;3.51;69.93;98842.89;103041;1317;108902;-65
2021/11/26 08:48:42;;;;;;;59.00;35.50;;;;;;;3.56;69.90;98842.41;103015;1316;97869;-65
2021/11/26 08:51:16;;;;;;;61.60;35.30;;;;;;;3.60;69.73;98844.23;103009;1316;137985;-64
2021/11/26 08:53:49;;;;;;;55.20;33.00;;;;;;;3.58;69.81;98845.27;103182;1314;112258;-64
2021/11/26 08:56:22;;;;;;;58.40;33.80;;;;;;;3.55;69.47;98841.23;103050;1314;138605;-65
2021/11/26 08:59:21;;;;;;;53.10;32.60;;;;;;;3.50;69.55;98835.70;104180;1315;109196;-65
2021/11/26 09:01:54;;;;;;;55.80;32.10;;;;;;;3.54;69.53;98839.20;104344;1317;139943;-65
2021/11/26 09:04:27;;;;;;;50.50;31.00;;;;;;;3.55;69.42;98840.04;103469;1316;97987;-65
2021/11/26 09:06:59;;;;;;;53.60;32.90;;;;;;;3.57;69.55;98845.30;103055;1318;113679;-65
2021/11/26 09:09:31;;;;;;;51.60;30.90;;;;;;;3.63;69.46;98840.02;102965;1316;138292;-64
2021/11/26 09:12:03;;;;;;;53.40;32.60;;;;;;;3.64;69.22;98830.01;103163;1314;109029;-64
2021/11/26 09:14:35;;;;;;;52.50;31.60;;;;;;;3.66;69.33;98831.69;103059;1314;137779;-64
2021/11/26 09:17:08;;;;;;;54.00;33.40;;;;;;;3.74;69.44;98823.38;103050;1314;97863;-64
2021/11/26 09:19:41;;;;;;;54.20;32.20;;;;;;;3.86;69.42;98821.87;103436;1311;138205;-64
2021/11/26 09:22:13;;;;;;;52.40;32.10;;;;;;;3.91;69.41;98823.76;103168;1313;107484;-64
2021/11/26 09:24:46;;;;;;;52.90;32.90;;;;;;;4.00;69.46;98816.98;104207;1314;108919;-64
2021/11/26 09:27:18;;;;;;;54.70;32.40;;;;;;;4.00;68.90;98816.31;104378;1316;138782;-64
2021/11/26 09:29:50;;;;;;;51.90;30.70;;;;;;;3.96;68.83;98814.00;103251;1312;98591;-64
2021/11/26 09:32:22;;;;;;;54.90;33.70;;;;;;;3.95;68.88;98809.23;103008;1314;137716;-65
2021/11/26 09:34:54;;;;;;;64.30;33.60;;;;;;;3.94;68.88;98808.05;103168;1313;108789;-64
2021/11/26 09:37:26;;;;;;;50.50;29.90;;;;;;;3.95;69.01;98794.77;103029;1317;138790;-64
2021/11/26 09:39:58;;;;;;;51.20;31.60;;;;;;;3.98;69.02;98790.75;103089;1314;97826;-64
2021/11/26 09:42:30;;;;;;;48.50;29.40;;;;;;;4.01;69.04;98783.06;103106;1315;97856;-64
2021/11/26 09:45:05;;;;;;;50.50;31.60;;;;;;;4.07;68.85;98781.36;103033;1314;137803;-64
2021/11/26 09:47:39;;;;;;;55.10;30.30;;;;;;;4.12;69.04;98782.77;102996;1316;108998;-67
2021/11/26 09:50:13;;;;;;;48.80;30.20;;;;;;;4.16;69.11;98778.67;102789;1314;138417;-67
2021/11/26 09:52:48;;;;;;;52.30;32.40;;;;;;;4.20;68.65;98772.02;104521;1314;96038;-67
2021/11/26 09:55:23;;;;;;;51.30;31.30;;;;;;;4.15;68.51;98765.48;103212;1317;138029;-68
2021/11/26 09:57:55;;;;;;;55.90;30.60;;;;;;;4.12;68.73;98764.50;102988;1315;112792;-67
2021/11/26 10:00:27;;;;;;;47.40;30.30;;;;;;;4.09;68.59;98759.62;102864;1316;108999;-67
2021/11/26 10:03:00;;;;;;;53.40;31.20;;;;;;;4.09;68.95;98759.94;102879;1315;137879;-67
2021/11/26 10:05:36;;;;;;;50.20;29.70;;;;;;;4.14;68.94;98756.21;102952;1314;97971;-67
2021/11/26 10:08:09;;;;;;;54.70;31.80;;;;;;;4.19;68.82;98748.33;102731;1314;137734;-67
2021/11/26 10:10:42;;;;;;;49.20;30.10;;;;;;;4.18;68.82;98745.08;102716;1315;111802;-68
2021/11/26 10:13:17;;;;;;;53.40;30.00;;;;;;;4.19;68.72;98736.11;102501;1316;138071;-68
2021/11/26 10:15:52;;;;;;;49.80;28.70;;;;;;;4.12;68.52;98733.54;103286;1314;108998;-67
2021/11/26 10:18:27;;;;;;;47.20;28.30;;;;;;;4.06;68.61;98734.41;103008;1314;98016;-68
2021/11/26 10:21:04;;;;;;;49.70;29.30;;;;;;;4.07;68.78;98733.20;104366;1314;138455;-70
2021/11/26 10:23:39;;;;;;;48.90;27.90;;;;;;;4.05;68.61;98734.63;103192;1314;111500;-67
2021/11/26 10:26:17;;;;;;;53.20;29.70;;;;;;;4.07;68.83;98729.06;102905;1314;138758;-67
2021/11/26 10:28:53;;;;;;;51.90;30.90;;;;;;;4.17;68.87;98724.83;102987;1314;108915;-66
2021/11/26 10:31:27;;;;;;;51.50;29.80;;;;;;;4.27;69.08;98722.61;102745;1314;139299;-65
2021/11/26 10:34:26;;;;;;;53.20;30.20;;;;;;;4.38;68.71;98724.69;103007;1311;98318;-66
2021/11/26 10:36:58;;;;;;;50.50;28.70;;;;;;;4.41;68.62;98720.59;102969;1314;112995;-66
2021/11/26 10:39:31;;;;;;;57.90;30.20;;;;;;;4.41;68.41;98719.76;102911;1314;138067;-65
2021/11/26 10:42:04;;;;;;;51.00;30.10;;;;;;;4.39;68.15;98721.20;103137;1315;108595;-66
2021/11/26 10:44:43;;;;;;;49.60;29.40;;;;;;;4.37;68.37;98714.90;103759;1316;139604;-66
2021/11/26 10:47:22;;;;;;;56.70;30.90;;;;;;;4.41;68.44;98711.31;104325;1312;96805;-65
2021/11/26 10:58:48;;;;;;;52.20;30.90;;;;;;;4.33;67.77;98708.48;104395;1316;97827;-64
2021/11/26 11:01:21;;;;;;;49.20;28.00;;;;;;;4.24;67.93;98705.84;103480;1315;138599;-64
2021/11/26 11:03:53;;;;;;;46.20;27.60;;;;;;;4.19;68.18;98694.12;102782;1314;111842;-65
2021/11/26 11:06:26;;;;;;;48.60;28.50;;;;;;;4.19;68.23;98691.73;102971;1313;109405;-64
2021/11/26 11:09:04;;;;;;;44.70;28.20;;;;;;;4.20;68.29;98684.44;102878;1314;137989;-66
2021/11/26 11:11:38;;;;;;;51.90;28.90;;;;;;;4.24;68.29;98683.30;103176;1312;97924;-65
2021/11/26 11:14:18;;;;;;;50.20;29.20;;;;;;;4.19;68.24;98678.29;102782;1314;139085;-65
2021/11/26 11:16:52;;;;;;;56.50;30.50;;;;;;;4.18;68.35;98665.26;104214;1311;110629;-66
2021/11/26 11:19:26;;;;;;;78.50;31.60;;;;;;;4.20;68.50;98663.96;104083;1311;139423;-65
2021/11/26 11:21:59;;;;;;;56.50;31.10;;;;;;;4.22;68.41;98662.52;104336;1313;108983;-65
2021/11/26 11:24:31;;;;;;;52.40;30.50;;;;;;;4.21;68.49;98657.23;103893;1315;96098;-66
2021/11/26 11:27:04;;;;;;;54.90;31.10;;;;;;;4.20;68.38;98650.58;103743;1314;138005;-66
2021/11/26 11:29:36;;;;;;;53.90;31.00;;;;;;;4.12;68.28;98643.59;103932;1317;112506;-66
2021/11/26 11:32:10;;;;;;;62.40;31.30;;;;;;;4.08;68.49;98640.29;103015;1314;138615;-65
2021/11/26 11:34:46;;;;;;;53.40;30.90;;;;;;;4.04;68.59;98634.38;103119;1314;109245;-65
2021/11/26 11:37:19;;;;;;;63.00;32.50;;;;;;;4.02;68.66;98632.04;103009;1317;138963;-65
2021/11/26 11:39:53;;;;;;;67.70;31.70;;;;;;;4.04;68.65;98626.66;103149;1317;98251;-65
2021/11/26 11:42:30;;;;;;;70.30;32.40;;;;;;;4.05;68.54;98630.07;103085;1317;113851;-66
2021/11/26 11:45:07;;;;;;;60.60;32.10;;;;;;;4.04;68.71;98626.15;104397;1314;138986;-66
2021/11/26 11:47:45;;;;;;;57.90;32.80;;;;;;;4.04;68.76;98632.17;103530;1315;108714;-66